createdAt,value
2024-03-05T00:54:02.101Z,29.50
2024-03-05T00:56:32.621Z,26.50
2024-03-05T00:59:01.926Z,26.70
2024-03-05T01:01:29.308Z,28.50
2024-03-05T01:04:01.638Z,26.20
2024-03-05T05:26:18.409Z,34.70
2024-03-05T05:29:07.729Z,34.00
2024-03-05T05:31:38.635Z,35.70
2024-03-05T05:34:06.917Z,32.80
2024-03-05T07:07:01.393Z,33.30
2024-03-05T07:09:32.681Z,35.00
2024-03-05T07:12:00.349Z,31.00
2024-03-05T07:14:33.009Z,30.20
2024-03-05T07:17:00.359Z,28.90
2024-03-05T07:19:27.599Z,31.30
2024-03-05T07:21:54.670Z,25.50
2024-03-05T07:24:21.456Z,28.40
2024-03-05T07:26:56.795Z,32.30
2024-03-05T07:29:35.577Z,30.50
2024-03-05T07:32:04.896Z,28.90
2024-03-05T07:34:35.858Z,30.90
2024-03-05T07:37:10.840Z,26.10
2024-03-05T07:39:46.432Z,27.00
2024-03-05T07:42:15.704Z,29.30
2024-03-05T07:44:44.942Z,29.40
2024-03-05T07:47:14.131Z,27.80
2024-03-05T07:49:43.577Z,27.00
2024-03-05T07:52:12.709Z,27.40
2024-03-05T07:54:41.502Z,28.00
2024-03-05T07:57:10.593Z,27.80
2024-03-05T07:59:39.777Z,23.80
2024-03-05T08:02:14.685Z,27.30
2024-03-05T08:04:43.729Z,25.50
2024-03-05T08:07:17.772Z,28.40
2024-03-05T08:09:50.387Z,28.90
2024-03-05T08:12:22.668Z,28.50
2024-03-05T08:14:49.506Z,27.10
2024-03-05T08:17:28.488Z,30.00
2024-03-05T08:19:58.092Z,25.00
2024-03-05T08:22:24.917Z,27.00
2024-03-05T08:24:53.762Z,26.80
2024-03-05T08:27:30.823Z,27.40
2024-03-05T08:29:58.959Z,27.90
2024-03-05T08:32:28.739Z,29.60
2024-03-05T08:34:55.541Z,29.20
2024-03-05T08:37:22.570Z,32.10
2024-03-05T08:39:50.649Z,34.70
2024-03-05T08:42:17.533Z,30.80
2024-03-05T08:44:48.869Z,28.70
2024-03-05T08:47:15.745Z,32.60
2024-03-05T08:49:46.553Z,28.80
2024-03-05T08:52:16.425Z,30.90
2024-03-05T08:54:45.975Z,28.80
2024-03-05T08:57:13.642Z,26.90
2024-03-05T08:59:40.391Z,27.10
2024-03-05T09:02:11.886Z,28.80
2024-03-05T09:04:43.334Z,31.30
2024-03-05T09:07:14.985Z,30.70
2024-03-05T09:09:45.002Z,32.10
2024-03-05T09:12:16.735Z,33.90
2024-03-05T09:14:45.758Z,29.70
2024-03-05T09:17:12.890Z,31.10
2024-03-05T09:19:45.095Z,28.70
2024-03-05T09:22:16.230Z,27.30
2024-03-05T09:24:48.692Z,31.90
2024-03-05T09:27:20.013Z,29.60
2024-03-05T09:29:48.932Z,29.70
2024-03-05T09:32:18.796Z,27.60
2024-03-05T09:34:46.305Z,29.20
2024-03-05T09:37:15.403Z,28.40
2024-03-05T09:39:42.056Z,31.40
2024-03-05T09:42:20.118Z,28.00
2024-03-05T09:44:52.170Z,29.50
2024-03-05T09:47:23.135Z,31.60
2024-03-05T09:49:56.018Z,31.60
2024-03-05T09:52:29.862Z,37.50
2024-03-05T09:55:02.265Z,39.90
2024-03-05T09:57:34.930Z,36.10
2024-03-05T10:00:15.772Z,38.90
2024-03-05T10:02:53.490Z,40.10
2024-03-05T10:05:20.731Z,42.40
2024-03-05T10:07:50.207Z,40.50
2024-03-05T10:13:23.834Z,44.50
2024-03-05T10:42:19.443Z,43.60
2024-03-05T10:45:43.049Z,40.20
2024-03-05T11:05:21.199Z,46.10
2024-03-05T11:07:58.097Z,49.40
2024-03-05T11:10:29.212Z,51.60
2024-03-05T11:12:56.034Z,49.80
2024-03-05T11:15:25.564Z,48.50
2024-03-05T11:17:57.657Z,47.60
2024-03-05T11:20:55.758Z,46.50
2024-03-05T11:23:33.377Z,51.30
2024-03-05T11:26:07.089Z,48.00
2024-03-05T11:28:37.900Z,45.70
2024-03-05T11:31:18.660Z,45.80
2024-03-05T11:34:05.680Z,44.20
2024-03-05T11:36:34.478Z,41.50
2024-03-05T11:39:07.806Z,51.70
2024-03-05T11:41:41.885Z,49.80
2024-03-05T12:40:00.022Z,45.00
2024-03-05T12:42:29.200Z,51.20
2024-03-05T12:45:10.851Z,46.20
2024-03-05T12:47:41.135Z,40.30
2024-03-05T12:50:12.508Z,41.20
2024-03-05T12:52:39.768Z,39.60
2024-03-05T12:55:12.479Z,44.90
2024-03-05T12:57:42.078Z,44.20
2024-03-05T13:00:16.388Z,38.80
2024-03-05T13:02:43.644Z,35.80
2024-03-05T13:05:12.787Z,36.10
2024-03-05T13:07:42.306Z,41.00
2024-03-05T13:10:12.729Z,40.80
2024-03-05T13:28:35.622Z,41.60
2024-03-05T13:31:06.516Z,35.90
2024-03-05T13:33:36.740Z,36.50
2024-03-05T13:36:12.817Z,43.90
2024-03-05T13:38:43.555Z,37.10
2024-03-05T13:41:11.871Z,34.80
2024-03-05T14:04:10.255Z,25.00
2024-03-05T14:06:44.645Z,27.70
2024-03-05T14:17:10.320Z,23.80
2024-03-05T14:19:50.450Z,25.70
2024-03-05T14:22:54.873Z,22.40
2024-03-05T14:25:22.560Z,23.50
2024-03-05T19:24:37.658Z,37.90
2024-03-05T19:27:07.189Z,42.60
2024-03-05T19:30:22.703Z,47.20
2024-03-05T20:23:25.875Z,75.40
2024-03-05T20:25:52.949Z,78.20
2024-03-05T20:28:20.150Z,80.50
2024-03-05T20:30:47.257Z,66.00
2024-03-05T20:33:19.077Z,65.10
2024-03-05T20:35:46.336Z,69.20
2024-03-05T20:38:16.343Z,70.20
2024-03-05T20:40:43.481Z,76.10
2024-03-05T20:43:11.780Z,71.90
2024-03-05T20:45:43.142Z,76.40
2024-03-05T20:48:10.413Z,76.50
2024-03-05T20:50:39.844Z,71.30
2024-03-05T20:53:10.150Z,77.40
2024-03-05T20:55:39.597Z,80.10
2024-03-05T20:58:09.658Z,68.30
2024-03-05T21:00:38.772Z,77.10
2024-03-05T21:03:11.332Z,82.00
2024-03-05T21:05:43.297Z,98.00
2024-03-05T21:08:13.675Z,99.60
2024-03-05T21:27:08.837Z,85.90
2024-03-05T21:29:35.476Z,81.20
2024-03-05T21:32:06.921Z,86.20
2024-03-05T21:34:39.612Z,94.80
2024-03-05T21:40:53.019Z,91.00
2024-03-05T21:43:21.924Z,89.20
2024-03-05T21:45:49.925Z,89.70
2024-03-05T21:48:19.547Z,103.80
2024-03-05T21:50:53.232Z,104.50
2024-03-05T21:54:06.998Z,99.70
2024-03-05T21:56:59.134Z,92.40
2024-03-05T21:59:30.565Z,91.20
2024-03-05T22:01:57.982Z,94.60
2024-03-05T22:04:25.270Z,98.70
2024-03-05T22:06:55.781Z,95.10
2024-03-05T22:09:25.374Z,94.90
2024-03-05T22:11:52.331Z,101.60
2024-03-05T22:14:22.164Z,98.80
2024-03-05T22:16:49.343Z,110.40
2024-03-05T22:19:18.927Z,103.90
2024-03-05T22:21:47.669Z,105.00
2024-03-05T22:24:17.219Z,107.50
2024-03-05T22:26:47.122Z,113.30
2024-03-05T22:29:14.629Z,103.50
2024-03-05T22:31:41.790Z,97.10
2024-03-05T22:34:09.826Z,98.90
2024-03-05T22:36:38.320Z,92.90
2024-03-05T22:39:06.955Z,99.70
2024-03-05T22:41:36.519Z,97.50
2024-03-05T22:44:07.317Z,97.00
2024-03-05T22:46:37.391Z,99.90
2024-03-05T22:49:04.625Z,93.20
2024-03-05T22:51:32.102Z,108.10
2024-03-05T22:53:59.438Z,115.30
2024-03-05T22:56:26.916Z,120.00
2024-03-05T22:58:59.175Z,121.30
2024-03-05T23:01:29.076Z,130.60
2024-03-05T23:03:56.307Z,143.80
2024-03-05T23:06:26.140Z,136.50
2024-03-05T23:08:54.259Z,142.40
2024-03-05T23:11:21.386Z,147.80
2024-03-05T23:13:49.037Z,132.00
2024-03-05T23:16:47.157Z,121.10
